Exe Otter — J8B4923 — position and weather

sailwx.info

Track history (hours):
 
Tides and Currents Weather Stations Pressure Air Temp Water Temp Dewpoint Dewpoint Depression Visibility Wind Speed Wind Dir Waves Ship Positions

Exe Otter

Last reported at 2018-Feb-16 16:34 UTC. Time now 2018-Feb-18 18:42 UTC.
Position N 32°57' E 034°38'.

Length 82 m; draft 5.4 m.

Type: Cargo ship. MMSI: 376070000.

Date/timePositionNaut miles runAvg speedWind from/ knotsBaromVisibWave heightAir tempDewpointWater temp
2018-Feb-16 16:34N 32°57' E 034°38'0 5.3
2018-Feb-16 16:30N 32°57' E 034°38'4 7.8
2018-Feb-16 16:00N 32°56' E 034°42'4 8.2
2018-Feb-16 15:31N 32°55' E 034°47'4 8.5
2018-Feb-16 15:00N 32°54' E 034°52'5 8.7
2018-Feb-16 14:27N 32°52' E 034°58'3 0.2
2018-Feb-15 17:17N 32°50' E 035°01'1 0.1
2018-Feb-15 10:18N 32°51' E 035°00'2 6.1
2018-Feb-15 09:59N 32°52' E 034°58'4 6.9
2018-Feb-15 09:28N 32°53' E 034°54'3 7.0
2018-Feb-15 08:59N 32°54' E 034°50'3 7.0
2018-Feb-15 08:30N 32°55' E 034°47'  
2018-Feb-12 08:43N 32°58' E 034°36'2 7.3
2018-Feb-12 08:30N 32°57' E 034°38'4 7.4
2018-Feb-12 08:00N 32°56' E 034°42'4 8.0
2018-Feb-12 07:30N 32°55' E 034°47'5 8.1
2018-Feb-12 06:54N 32°53' E 034°52'3 8.6
2018-Feb-12 06:30N 32°53' E 034°56'5 0.2
2018-Feb-11 09:44N 32°50' E 035°01'1 1.6
2018-Feb-11 09:02N 32°51' E 034°60'0 0.1
2018-Feb-11 08:50N 32°51' E 034°60'0 0.0
2018-Feb-10 15:40N 32°51' E 034°60'0 0.0
2018-Feb-10 13:58N 32°51' E 034°60'0 0.0
2018-Feb-10 13:28N 32°51' E 034°60'0 0.0
2018-Feb-10 04:28N 32°51' E 034°60'0 0.0
2018-Feb-10 00:58N 32°51' E 034°60'0 0.1
2018-Feb-10 00:22N 32°51' E 034°60'7 0.2
2018-Feb-08 12:00N 32°53' E 034°52'91 7.2
2018-Feb-07 23:19N 34°13' E 033°59'3 7.7
2018-Feb-07 22:59N 34°15' E 033°58'26 1.5
2018-Feb-07 05:48N 34°39' E 033°47'3 8.4
2018-Feb-07 05:30N 34°37' E 033°49'43 8.4
2018-Feb-07 00:24N 33°56' E 034°06'37 8.5
2018-Feb-06 20:06N 33°22' E 034°21'3 8.9
2018-Feb-06 19:43N 33°19' E 034°23'3 9.0
2018-Feb-06 19:21N 33°16' E 034°24'3 9.5
2018-Feb-06 18:59N 33°13' E 034°26'14 9.2
2018-Feb-06 17:25N 32°59' E 034°32'4 9.2
2018-Feb-06 17:00N 32°58' E 034°36'  
Track history (hours):
 
Tides and Currents Weather Stations Pressure Air Temp Water Temp Dewpoint Dewpoint Depression Visibility Wind Speed Wind Dir Waves Ship Positions

Exe Otter

Last reported at 2018-Feb-16 16:34 UTC. Time now 2018-Feb-18 18:42 UTC.
Position N 32°57' E 034°38'.

Length 82 m; draft 5.4 m.

Type: Cargo ship. MMSI: 376070000.

Date/timePositionNaut miles runAvg speedWind from/ knotsBaromVisibWave heightAir tempDewpointWater temp
2018-Feb-16 16:34N 32°57' E 034°38'0 5.3
2018-Feb-16 16:30N 32°57' E 034°38'4 7.8
2018-Feb-16 16:00N 32°56' E 034°42'4 8.2
2018-Feb-16 15:31N 32°55' E 034°47'4 8.5
2018-Feb-16 15:00N 32°54' E 034°52'5 8.7
2018-Feb-16 14:27N 32°52' E 034°58'3 0.2
2018-Feb-15 17:17N 32°50' E 035°01'1 0.1
2018-Feb-15 10:18N 32°51' E 035°00'2 6.1
2018-Feb-15 09:59N 32°52' E 034°58'4 6.9
2018-Feb-15 09:28N 32°53' E 034°54'3 7.0
2018-Feb-15 08:59N 32°54' E 034°50'3 7.0
2018-Feb-15 08:30N 32°55' E 034°47'  
2018-Feb-12 08:43N 32°58' E 034°36'2 7.3
2018-Feb-12 08:30N 32°57' E 034°38'4 7.4
2018-Feb-12 08:00N 32°56' E 034°42'4 8.0
2018-Feb-12 07:30N 32°55' E 034°47'5 8.1
2018-Feb-12 06:54N 32°53' E 034°52'3 8.6
2018-Feb-12 06:30N 32°53' E 034°56'5 0.2
2018-Feb-11 09:44N 32°50' E 035°01'1 1.6
2018-Feb-11 09:02N 32°51' E 034°60'0 0.1
2018-Feb-11 08:50N 32°51' E 034°60'0 0.0
2018-Feb-10 15:40N 32°51' E 034°60'0 0.0
2018-Feb-10 13:58N 32°51' E 034°60'0 0.0
2018-Feb-10 13:28N 32°51' E 034°60'0 0.0
2018-Feb-10 04:28N 32°51' E 034°60'0 0.0
2018-Feb-10 00:58N 32°51' E 034°60'0 0.1
2018-Feb-10 00:22N 32°51' E 034°60'7 0.2
2018-Feb-08 12:00N 32°53' E 034°52'91 7.2
2018-Feb-07 23:19N 34°13' E 033°59'3 7.7
2018-Feb-07 22:59N 34°15' E 033°58'26 1.5
2018-Feb-07 05:48N 34°39' E 033°47'3 8.4
2018-Feb-07 05:30N 34°37' E 033°49'43 8.4
2018-Feb-07 00:24N 33°56' E 034°06'37 8.5
2018-Feb-06 20:06N 33°22' E 034°21'3 8.9
2018-Feb-06 19:43N 33°19' E 034°23'3 9.0
2018-Feb-06 19:21N 33°16' E 034°24'3 9.5
2018-Feb-06 18:59N 33°13' E 034°26'14 9.2
2018-Feb-06 17:25N 32°59' E 034°32'4 9.2
2018-Feb-06 17:00N 32°58' E 034°36'  

Dump ship's entire track history